ADDS METAR Data INFO
IDs: Format: Raw Decoded Include TAF

Data at: 0455 UTC 21 Feb 2018

KIFA 201515Z AUTO 29007KT 10SM BKN008 OVC027 M04/M05 A2992 RMK AO2 T10401052
KIFA 201455Z AUTO 28006KT 7SM OVC008 M04/M05 A2991 RMK AO2 T10411052
KIFA 201435Z AUTO 30010KT 7SM OVC008 M04/M05 A2989 RMK AO2 T10401050
KIFA 201415Z AUTO 30008KT 7SM UP OVC008 M04/M05 A2989 RMK AO2 T10371048
KIFA 201355Z AUTO 30009KT 7SM UP OVC006 M03/M04 A2987 RMK AO2 T10311040
KIFA 201335Z AUTO 29007KT 7SM OVC006 M03/M04 A2987 RMK AO2 T10281036
KIFA 201315Z AUTO 29008KT 7SM UP OVC006 M02/M03 A2984 RMK AO2 T10251033
KIFA 201255Z AUTO 29008KT 10SM BKN006 OVC042 M02/M03 A2984 RMK AO2 T10201027
KIFA 201235Z AUTO 29006KT 10SM UP BKN006 OVC042 M02/M02 A2984 RMK AO2 T10171025
KIFA 201215Z AUTO 29007KT 10SM OVC004 M01/M02 A2983 RMK AO2 T10151021
KIFA 201155Z AUTO 30006KT 10SM OVC006 M01/M02 A2982 RMK AO2 P0003 60023 70023 T10121018 11001 21012
KIFA 201135Z AUTO 30006KT 5SM -SN OVC006 M01/M01 A2982 RMK AO2 P0003 T10081015
KIFA 201115Z AUTO 29008KT 3SM -SN OVC006 00/M01 A2983 RMK AO2 P0002 T10031008
KIFA 201055Z AUTO 28007KT 7SM OVC008 00/M01 A2981 RMK AO2 P0002 T10051010
KIFA 201035Z AUTO 28006KT 10SM OVC008 00/M01 A2982 RMK AO2 P0002 T10051010
KIFA 201015Z AUTO 27007KT 4SM -SN OVC008 00/M01 A2983 RMK AO2 P0002 T10031008
KIFA 200955Z AUTO 27007KT 10SM UP BKN008 OVC020 M01/M01 A2982 RMK AO2 P0003 T10061010
KIFA 200935Z AUTO 25008KT 4SM -SN OVC006 00/M01 A2982 RMK AO2 P0003 T10031007
KIFA 200915Z AUTO 26009KT 10SM UP OVC006 00/M01 A2982 RMK AO2 T10021006
KIFA 200855Z AUTO 00000KT 7SM UP BKN004 BKN010 OVC090 00/M01 A2975 RMK AO2 P0012 60015 T10051008
KIFA 200835Z AUTO 10003KT 2 1/2SM -SN BKN006 BKN033 BKN040 M01/M01 A2976 RMK AO2 VIS 1 3/4V4 P0011 T10061010
KIFA 200815Z AUTO 22011G15KT 7SM -SN OVC006 M01/M01 A2988 RMK AO2 P0004 T10081011
KIFA 200755Z AUTO 07006KT 10SM UP OVC006 M01/M01 A2975 RMK AO2 P0003 T10091013
KIFA 200735Z AUTO 26011G14KT 10SM UP OVC004 M01/M01 A2986 RMK AO2 P0003 T10101013
KIFA 200715Z AUTO 04005KT 3SM -SN OVC002 M01/M01 A2975 RMK AO2 P0003 T10091012
KIFA 200655Z AUTO 36003KT 4SM UP OVC002 M01/M01 A2979 RMK AO2 T10101013
KIFA 200635Z AUTO 00000KT 4SM BR OVC002 M01/M01 A2982 RMK AO2 T10111015
KIFA 200615Z AUTO 02004KT 5SM BR OVC002 M01/M01 A2978 RMK AO2 T10111015
KIFA 200555Z AUTO 33006KT 4SM BR OVC002 M01/M01 A2979 RMK AO2 T10101013 10009 21010 400381010
KIFA 200535Z AUTO 34009KT 4SM BR OVC002 M01/M01 A2977 RMK AO2 T10101013
KIFA 200515Z AUTO 35007KT 7SM OVC002 M01/M01 A2980 RMK AO2 T10101013
KIFA 200455Z AUTO 32006KT 7SM OVC002 M01/M01 A2982 RMK AO2 T10101012
KIFA 200435Z AUTO 32008KT 7SM OVC002 M01/M01 A2982 RMK AO2 T10071010
KIFA 200415Z AUTO 33007KT 5SM BR OVC002 M01/M01 A2981 RMK AO2 T10071010
KIFA 200355Z AUTO 35008KT 5SM BR OVC002 00/M01 A2980 RMK AO2 T10051007
KIFA 200335Z AUTO 33007KT 4SM BR OVC002 00/M01 A2980 RMK AO2 T10051007
KIFA 200315Z AUTO 32007KT 4SM BR OVC002 00/M01 A2980 RMK AO2 T10051006
KIFA 200255Z AUTO 33008KT 5SM BR OVC002 00/00 A2980 RMK AO2 T10031005
KIFA 200235Z AUTO 33007KT 4SM BR OVC002 00/00 A2979 RMK AO2 T10011003
KIFA 200215Z AUTO 32009KT 4SM BR OVC002 00/00 A2979 RMK AO2 T10011003
KIFA 200155Z AUTO 32009KT 5SM BR OVC002 00/00 A2978 RMK AO2 T00001002
KIFA 200135Z AUTO 32009KT 4SM BR OVC002 00/00 A2977 RMK AO2 T00001001
KIFA 200115Z AUTO 32011KT 3SM BR OVC002 00/00 A2977 RMK AO2 T00001001
KIFA 200055Z AUTO 32012KT 2 1/2SM BR OVC002 00/00 A2977 RMK AO2 T00020000
KIFA 200035Z AUTO 31010KT 2SM BR OVC002 00/00 A2976 RMK AO2 T00030000
KIFA 200015Z AUTO 31010KT 1 3/4SM BR OVC002 01/00 A2975 RMK AO2 T00050001
KIFA 192355Z AUTO 31009KT 3/4SM BR OVC002 01/01 A2975 RMK AO2 T00100006 10016 20010
KIFA 192335Z AUTO 30007KT 3/4SM BR OVC002 01/01 A2975 RMK AO2 T00100007
KIFA 192315Z AUTO 31007KT 1SM BR OVC002 01/01 A2973 RMK AO2 T00110008
KIFA 192255Z AUTO 31007KT 1 1/4SM BR OVC002 01/01 A2973 RMK AO2 T00120010
KIFA 192235Z AUTO 33007KT 1 1/4SM BR OVC002 01/01 A2972 RMK AO2 T00130010
KIFA 192215Z AUTO 33007KT 1 1/4SM BR OVC002 02/01 A2971 RMK AO2 T00150011
KIFA 192155Z AUTO 33008KT 1SM BR OVC002 02/01 A2970 RMK AO2 T00150011
KIFA 192135Z AUTO 33007KT 1SM BR OVC002 02/01 A2970 RMK AO2 T00150012
KIFA 192115Z AUTO 34007KT 3/4SM BR OVC002 02/01 A2970 RMK AO2 T00160012
KIFA 192055Z AUTO 33007KT 1/2SM FG OVC002 02/01 A2970 RMK AO2 T00150012
KIFA 192035Z AUTO 33006KT 1/2SM FG OVC002 02/01 A2969 RMK AO2 T00150012
KIFA 192015Z AUTO 32005KT 3/4SM BR OVC002 02/01 A2969 RMK AO2 T00160012
KIFA 191955Z AUTO 35005KT 1SM BR OVC002 02/01 A2968 RMK AO2 T00150012
KIFA 191935Z AUTO 36005KT 1SM BR OVC002 02/01 A2968 RMK AO2 T00150011
KIFA 191915Z AUTO 02008KT 1SM BR OVC002 01/01 A2967 RMK AO2 T00120008
KIFA 191855Z AUTO 02010G16KT 1SM BR OVC002 01/01 A2966 RMK AO2 T00120008
KIFA 191835Z AUTO 02009KT 1 1/4SM BR OVC002 01/01 A2968 RMK AO2 T00100006
KIFA 191815Z AUTO 01006KT 1 3/4SM BR OVC002 01/01 A2969 RMK AO2 T00120007
KIFA 191755Z AUTO 01006KT 1 3/4SM BR OVC002 01/01 A2970 RMK AO2 T00120007 10030 20007
KIFA 191735Z AUTO 36009KT 2SM BR OVC002 01/01 A2971 RMK AO2 T00120007
KIFA 191715Z AUTO 02009KT 1 1/2SM BR OVC004 01/01 A2970 RMK AO2 T00130008